createdAt,value
2019-02-25T00:04:15.647Z,7.00
2019-02-25T00:09:21.044Z,7.00
2019-02-25T00:14:26.417Z,6.90
2019-02-25T00:19:31.801Z,6.70
2019-02-25T00:24:37.365Z,6.80
2019-02-25T00:29:42.829Z,6.90
2019-02-25T00:34:48.290Z,6.90
2019-02-25T00:39:53.702Z,6.90
2019-02-25T00:44:59.248Z,7.00
2019-02-25T00:50:05.091Z,6.90
2019-02-25T00:55:10.669Z,6.90
2019-02-25T01:00:16.847Z,6.90
2019-02-25T01:05:22.313Z,6.90
2019-02-25T01:10:27.896Z,6.90
2019-02-25T01:15:33.359Z,6.80
2019-02-25T01:20:38.803Z,6.70
2019-02-25T01:25:44.343Z,6.70
2019-02-25T01:30:49.759Z,6.60
2019-02-25T01:35:55.421Z,6.60
2019-02-25T01:41:00.876Z,6.60
2019-02-25T01:46:06.324Z,6.50
2019-02-25T01:51:11.832Z,6.40
2019-02-25T01:56:17.234Z,6.40
2019-02-25T02:01:22.626Z,6.40
2019-02-25T02:06:28.127Z,6.40
2019-02-25T02:11:33.541Z,6.40
2019-02-25T02:16:39.059Z,6.40
2019-02-25T02:21:44.439Z,6.40
2019-02-25T02:26:49.876Z,6.40
2019-02-25T02:31:55.298Z,6.40
2019-02-25T02:37:00.795Z,6.30
2019-02-25T02:42:20.695Z,6.40
2019-02-25T02:48:03.547Z,6.30
2019-02-25T02:53:09.072Z,6.30
2019-02-25T02:58:14.416Z,6.30
2019-02-25T03:03:19.808Z,6.20
2019-02-25T03:08:25.385Z,6.20
2019-02-25T03:13:31.052Z,6.10
2019-02-25T03:18:36.741Z,6.10
2019-02-25T03:23:42.119Z,6.00
2019-02-25T03:28:47.767Z,5.90
2019-02-25T03:33:53.393Z,5.80
2019-02-25T03:38:58.848Z,5.80
2019-02-25T03:44:04.413Z,5.70
2019-02-25T03:49:09.821Z,5.60
2019-02-25T03:54:15.303Z,5.50
2019-02-25T03:59:20.774Z,5.40
2019-02-25T04:04:26.135Z,5.40
2019-02-25T04:09:31.568Z,5.20
2019-02-25T04:14:37.130Z,5.20
2019-02-25T04:19:42.480Z,5.10
2019-02-25T04:24:47.848Z,5.10
2019-02-25T04:29:53.206Z,5.10
2019-02-25T04:34:58.763Z,5.10
2019-02-25T04:40:04.352Z,5.10
2019-02-25T04:45:15.798Z,5.10
2019-02-25T04:50:21.233Z,5.10
2019-02-25T04:55:26.924Z,5.00
2019-02-25T05:00:32.480Z,5.00
2019-02-25T05:05:37.960Z,5.00
2019-02-25T05:10:43.474Z,5.00
2019-02-25T05:15:48.824Z,5.00
2019-02-25T05:20:54.205Z,5.00
2019-02-25T05:25:59.691Z,5.00
2019-02-25T05:31:05.238Z,5.00
2019-02-25T05:36:10.721Z,5.10
2019-02-25T05:41:16.164Z,5.10
2019-02-25T05:46:21.735Z,5.10
2019-02-25T05:51:27.149Z,5.20
2019-02-25T05:56:32.591Z,5.20
2019-02-25T06:01:38.005Z,5.20
2019-02-25T06:06:43.409Z,5.20
2019-02-25T06:11:48.992Z,5.20
2019-02-25T06:16:54.441Z,5.20
2019-02-25T06:21:59.876Z,5.10
2019-02-25T06:27:05.382Z,5.10
2019-02-25T06:32:10.739Z,5.10
2019-02-25T06:37:16.140Z,5.10
2019-02-25T06:42:21.577Z,5.10
2019-02-25T06:47:27.012Z,5.10
2019-02-25T06:52:32.488Z,5.20
2019-02-25T06:57:37.903Z,5.30
2019-02-25T07:02:43.354Z,5.30
2019-02-25T07:08:13.652Z,5.40
2019-02-25T07:13:49.894Z,5.40
2019-02-25T07:19:13.109Z,5.50
2019-02-25T07:24:52.598Z,5.60
2019-02-25T07:30:05.074Z,5.70
2019-02-25T07:35:35.433Z,5.90
2019-02-25T07:41:08.799Z,6.20
2019-02-25T07:46:33.092Z,6.40
2019-02-25T07:51:56.277Z,9.90
2019-02-25T07:57:35.916Z,15.30
2019-02-25T08:03:01.858Z,19.60
2019-02-25T08:08:15.108Z,22.80
2019-02-25T08:13:42.412Z,25.80
2019-02-25T08:19:09.924Z,28.10
2019-02-25T08:24:40.425Z,29.80
2019-02-25T08:30:05.107Z,30.70
2019-02-25T08:35:40.749Z,30.80
2019-02-25T08:41:28.878Z,30.60
2019-02-25T08:46:38.860Z,30.20
2019-02-25T08:51:44.508Z,30.10
2019-02-25T08:56:50.214Z,30.50
2019-02-25T09:01:55.745Z,30.80
2019-02-25T09:07:01.083Z,31.20
2019-02-25T09:12:06.555Z,32.40
2019-02-25T09:17:12.892Z,33.00
2019-02-25T09:22:18.605Z,33.80
2019-02-25T09:27:24.456Z,34.90
2019-02-25T09:32:30.108Z,37.00
2019-02-25T09:37:37.312Z,37.70
2019-02-25T09:42:43.163Z,38.20
2019-02-25T09:47:48.802Z,38.80
2019-02-25T09:52:54.554Z,39.10
2019-02-25T09:58:00.160Z,39.60
2019-02-25T10:03:05.893Z,38.50
2019-02-25T10:08:11.664Z,34.30
2019-02-25T10:13:17.212Z,28.60
2019-02-25T10:18:22.755Z,23.80
2019-02-25T10:23:28.133Z,19.90
2019-02-25T10:28:33.947Z,17.30
2019-02-25T10:33:39.466Z,15.70
2019-02-25T10:38:45.114Z,14.80
2019-02-25T10:43:50.608Z,14.20
2019-02-25T10:48:57.394Z,13.90
2019-02-25T10:54:03.539Z,13.70
2019-02-25T10:59:09.114Z,13.60
2019-02-25T11:04:15.359Z,13.60
2019-02-25T11:09:58.140Z,13.60
2019-02-25T11:15:05.296Z,13.70
2019-02-25T11:20:11.463Z,13.80
2019-02-25T11:25:16.892Z,13.90
2019-02-25T11:30:23.933Z,13.90
2019-02-25T11:35:29.617Z,14.00
2019-02-25T11:40:36.574Z,14.10
2019-02-25T11:45:42.141Z,14.30
2019-02-25T11:50:47.624Z,14.40
2019-02-25T11:55:53.127Z,14.50
2019-02-25T12:00:58.858Z,14.60
2019-02-25T12:06:04.311Z,14.70
2019-02-25T12:11:09.899Z,14.80
2019-02-25T12:16:15.579Z,15.00
2019-02-25T12:21:21.463Z,15.20
2019-02-25T12:26:26.935Z,15.50
2019-02-25T12:31:32.362Z,15.60
2019-02-25T12:36:38.075Z,15.60
2019-02-25T12:41:43.563Z,15.70
2019-02-25T12:46:49.035Z,15.80
2019-02-25T12:51:54.497Z,15.90
2019-02-25T12:56:59.963Z,16.00
2019-02-25T13:02:05.540Z,16.10
2019-02-25T13:07:10.915Z,16.20
2019-02-25T13:12:16.283Z,16.30
2019-02-25T13:17:21.950Z,16.40
2019-02-25T13:22:27.533Z,16.50
2019-02-25T13:27:33.340Z,16.50
2019-02-25T13:32:38.723Z,16.60
2019-02-25T13:37:44.320Z,16.70
2019-02-25T13:42:49.793Z,16.80
2019-02-25T13:47:55.350Z,16.80
2019-02-25T13:53:01.068Z,16.90
2019-02-25T13:58:06.496Z,16.90
2019-02-25T14:03:12.023Z,17.00
2019-02-25T14:08:17.478Z,17.00
2019-02-25T14:13:22.977Z,17.10
2019-02-25T14:18:28.529Z,17.10
2019-02-25T14:23:34.152Z,17.10
2019-02-25T14:28:39.687Z,17.10
2019-02-25T14:33:45.311Z,17.20
2019-02-25T14:38:51.882Z,17.20
2019-02-25T14:43:58.731Z,17.20
2019-02-25T14:49:04.375Z,17.10
2019-02-25T14:54:09.928Z,17.10
2019-02-25T14:59:17.313Z,17.10
2019-02-25T15:04:22.441Z,17.00
2019-02-25T15:09:28.383Z,17.10
2019-02-25T15:14:35.323Z,17.00
2019-02-25T15:19:42.834Z,17.00
2019-02-25T15:24:50.230Z,17.00
2019-02-25T15:29:55.446Z,17.00
2019-02-25T15:35:00.899Z,17.00
2019-02-25T15:40:10.071Z,17.00
2019-02-25T15:45:17.715Z,17.00
2019-02-25T15:50:23.290Z,16.90
2019-02-25T15:55:28.945Z,17.00
2019-02-25T16:00:36.478Z,16.90
2019-02-25T16:05:41.453Z,16.90
2019-02-25T16:10:48.825Z,16.90
2019-02-25T16:15:54.147Z,16.80
2019-02-25T16:20:59.828Z,16.70
2019-02-25T16:26:05.184Z,16.50
2019-02-25T16:31:12.279Z,16.40
2019-02-25T16:36:18.121Z,16.20
2019-02-25T16:41:27.322Z,16.10
2019-02-25T16:46:34.220Z,16.00
2019-02-25T16:51:38.447Z,15.80
2019-02-25T16:56:43.864Z,15.70
2019-02-25T17:01:49.820Z,15.50
2019-02-25T17:06:56.138Z,15.30
2019-02-25T17:12:04.515Z,15.10
2019-02-25T17:17:10.013Z,14.90
2019-02-25T17:22:15.811Z,14.70
2019-02-25T17:27:21.444Z,14.50
2019-02-25T17:32:27.081Z,14.30
2019-02-25T17:37:33.873Z,14.10
2019-02-25T17:42:39.797Z,13.90
2019-02-25T17:47:45.453Z,13.70
2019-02-25T17:52:51.278Z,13.50
2019-02-25T17:57:58.776Z,13.20
2019-02-25T18:03:05.785Z,13.00
2019-02-25T18:08:15.147Z,12.80
2019-02-25T18:13:21.912Z,12.60
2019-02-25T18:18:28.018Z,12.40
2019-02-25T18:23:34.448Z,12.30
2019-02-25T18:28:41.666Z,12.10
2019-02-25T18:33:48.596Z,12.00
2019-02-25T18:38:55.407Z,11.90
2019-02-25T18:44:01.127Z,11.80
2019-02-25T18:49:07.810Z,11.70
2019-02-25T18:54:16.829Z,11.70
2019-02-25T18:59:22.215Z,11.60
2019-02-25T19:04:28.553Z,11.50
2019-02-25T19:09:34.847Z,11.30
2019-02-25T19:14:40.943Z,11.20
2019-02-25T19:19:52.894Z,10.90
2019-02-25T19:24:59.299Z,10.70
2019-02-25T19:30:06.275Z,10.50
2019-02-25T19:35:14.344Z,10.40
2019-02-25T19:40:22.509Z,10.30
2019-02-25T19:45:27.274Z,10.30
2019-02-25T19:50:34.521Z,10.20
2019-02-25T19:55:41.030Z,10.10
2019-02-25T20:00:50.625Z,10.00
2019-02-25T20:05:56.392Z,10.60
2019-02-25T20:11:01.898Z,10.10
2019-02-25T20:16:08.359Z,10.00
2019-02-25T20:21:14.753Z,9.90
2019-02-25T20:26:22.201Z,9.70
2019-02-25T20:31:27.436Z,9.60
2019-02-25T20:36:32.909Z,9.40
2019-02-25T20:41:38.525Z,9.30
2019-02-25T20:46:44.216Z,9.20
2019-02-25T20:51:50.083Z,9.10
2019-02-25T20:56:56.009Z,9.00
2019-02-25T21:02:01.510Z,8.80
2019-02-25T21:07:08.719Z,8.80
2019-02-25T21:12:15.746Z,8.70
2019-02-25T21:17:21.464Z,8.60
2019-02-25T21:22:27.412Z,8.50
2019-02-25T21:27:34.723Z,8.50
2019-02-25T21:32:40.589Z,8.40
2019-02-25T21:37:48.341Z,8.30
2019-02-25T21:42:56.649Z,8.20
2019-02-25T21:48:04.697Z,8.20
2019-02-25T21:53:09.939Z,8.10
2019-02-25T21:58:16.779Z,8.10
2019-02-25T22:03:22.612Z,8.10
2019-02-25T22:08:29.051Z,8.00
2019-02-25T22:13:35.390Z,7.90
2019-02-25T22:18:41.168Z,7.80
2019-02-25T22:23:46.807Z,7.70
2019-02-25T22:28:53.287Z,7.70
2019-02-25T22:33:59.072Z,7.80
2019-02-25T22:39:05.527Z,7.90
2019-02-25T22:44:11.832Z,7.90
2019-02-25T22:49:17.319Z,8.00
2019-02-25T22:54:22.810Z,8.00
2019-02-25T22:59:28.235Z,8.00
2019-02-25T23:04:33.938Z,8.10
2019-02-25T23:09:47.550Z,8.00
2019-02-25T23:14:54.347Z,7.90
2019-02-25T23:20:00.544Z,7.90
2019-02-25T23:25:07.432Z,7.80
2019-02-25T23:30:13.003Z,7.70
2019-02-25T23:35:20.681Z,7.60
2019-02-25T23:40:25.882Z,7.50
2019-02-25T23:45:31.539Z,7.40
2019-02-25T23:50:37.042Z,7.20
2019-02-25T23:55:45.103Z,7.10
